createdAt,value
2019-02-24T00:02:41.774Z,27.51
2019-02-24T00:03:19.438Z,27.54
2019-02-24T00:04:20.361Z,27.57
2019-02-24T00:05:24.851Z,27.59
2019-02-24T00:06:48.460Z,27.65
2019-02-24T00:08:09.000Z,27.76
2019-02-24T00:09:51.448Z,27.97
2019-02-24T00:10:35.306Z,28.18
2019-02-24T00:11:16.686Z,28.42
2019-02-24T00:12:46.014Z,28.54
2019-02-24T00:13:22.227Z,28.64
2019-02-24T00:13:58.421Z,28.78
2019-02-24T00:14:34.466Z,28.81
2019-02-24T00:15:10.717Z,28.79
2019-02-24T00:15:46.919Z,28.72
2019-02-24T00:16:23.414Z,28.69
2019-02-24T00:16:59.782Z,28.67
2019-02-24T00:17:39.144Z,28.68
2019-02-24T00:19:03.944Z,28.70
2019-02-24T00:20:21.179Z,28.72
2019-02-24T00:22:58.670Z,28.75
2019-02-24T00:23:38.732Z,28.72
2019-02-24T00:24:18.526Z,28.72
2019-02-24T00:27:57.750Z,28.73
2019-02-24T00:28:58.767Z,28.74
2019-02-24T00:34:28.856Z,28.81
2019-02-24T00:35:16.724Z,28.86
2019-02-24T00:35:53.559Z,28.91
2019-02-24T00:38:58.411Z,29.00
2019-02-24T00:42:06.986Z,29.16
2019-02-24T00:45:21.223Z,29.28
2019-02-24T00:46:10.792Z,29.32
2019-02-24T00:48:53.626Z,29.35
2019-02-24T00:53:29.463Z,29.43
2019-02-24T00:54:16.590Z,29.44
2019-02-24T00:55:30.701Z,29.45
2019-02-24T00:59:40.011Z,29.44
2019-02-24T01:01:31.346Z,29.44
2019-02-24T01:02:09.209Z,29.45
2019-02-24T01:03:16.882Z,29.49
2019-02-24T01:08:24.693Z,29.58
2019-02-24T01:09:48.967Z,29.68
2019-02-24T01:11:04.538Z,29.74
2019-02-24T01:12:06.306Z,29.81
2019-02-24T01:16:17.854Z,29.96
2019-02-24T01:17:17.450Z,30.00
2019-02-24T01:18:12.379Z,30.06
2019-02-24T01:19:17.175Z,30.09
2019-02-24T01:20:21.734Z,30.12
2019-02-24T01:22:08.711Z,30.17
2019-02-24T01:24:46.991Z,30.39
2019-02-24T01:26:08.266Z,30.42
2019-02-24T01:27:38.648Z,30.42
2019-02-24T01:28:49.910Z,30.54
2019-02-24T01:32:20.439Z,30.77
2019-02-24T01:33:24.002Z,30.83
2019-02-24T01:34:44.122Z,30.93
2019-02-24T01:36:04.450Z,30.93
2019-02-24T01:36:58.036Z,31.05
2019-02-24T01:38:00.637Z,31.05
2019-02-24T01:39:04.405Z,31.17
2019-02-24T01:40:23.894Z,31.34
2019-02-24T01:41:43.583Z,31.54
2019-02-24T01:42:23.979Z,31.54
2019-02-24T01:43:24.943Z,31.60
2019-02-24T01:45:05.373Z,31.76
2019-02-24T01:46:05.899Z,31.76
2019-02-24T01:48:24.232Z,31.92
2019-02-24T01:49:09.041Z,32.01
2019-02-24T01:51:12.767Z,32.21
2019-02-24T01:54:49.046Z,32.24
2019-02-24T02:02:39.459Z,32.70
2019-02-24T02:06:40.342Z,32.89
2019-02-24T02:11:43.804Z,33.14
2019-02-24T02:14:14.055Z,33.32
2019-02-24T02:15:40.759Z,33.40
2019-02-24T02:17:10.985Z,33.46
2019-02-24T02:18:21.364Z,33.52
2019-02-24T02:20:20.307Z,33.59
2019-02-24T02:23:43.879Z,33.69
2019-02-24T02:25:10.834Z,33.76
2019-02-24T02:25:54.627Z,33.86
2019-02-24T02:26:41.440Z,33.92
2019-02-24T02:27:24.341Z,34.00
2019-02-24T02:28:08.115Z,34.03
2019-02-24T02:29:31.772Z,34.01
2019-02-24T02:30:28.030Z,34.03
2019-02-24T02:31:08.746Z,34.06
2019-02-24T02:34:50.558Z,34.10
2019-02-24T02:35:34.463Z,34.06
2019-02-24T02:36:12.342Z,34.03
2019-02-24T02:36:49.889Z,34.05
2019-02-24T02:37:29.670Z,34.08
2019-02-24T02:38:06.971Z,34.12
2019-02-24T02:38:44.340Z,34.11
2019-02-24T02:39:38.370Z,34.14
2019-02-24T02:40:15.467Z,34.17
2019-02-24T02:40:54.730Z,34.11
2019-02-24T02:41:31.653Z,34.16
2019-02-24T02:42:14.256Z,34.21
2019-02-24T02:43:04.188Z,34.29
2019-02-24T02:43:41.214Z,34.36
2019-02-24T02:44:20.797Z,34.42
2019-02-24T02:44:57.383Z,34.42
2019-02-24T02:45:41.477Z,34.44
2019-02-24T02:46:21.064Z,34.34
2019-02-24T02:46:57.531Z,34.35
2019-02-24T02:47:34.718Z,34.39
2019-02-24T02:48:11.127Z,34.41
2019-02-24T02:48:47.474Z,34.45
2019-02-24T02:49:30.876Z,34.50
2019-02-24T02:50:10.306Z,34.55
2019-02-24T02:50:46.635Z,34.56
2019-02-24T02:51:31.602Z,34.63
2019-02-24T02:52:08.229Z,34.66
2019-02-24T02:52:45.347Z,34.68
2019-02-24T02:53:45.953Z,34.75
2019-02-24T02:54:24.627Z,34.78
2019-02-24T02:55:02.611Z,34.79
2019-02-24T02:55:42.725Z,34.77
2019-02-24T02:56:20.310Z,34.82
2019-02-24T02:56:57.887Z,34.84
2019-02-24T02:57:34.095Z,34.86
2019-02-24T02:58:10.519Z,34.92
2019-02-24T02:58:54.387Z,34.95
2019-02-24T02:59:26.729Z,34.99
2019-02-24T03:00:05.747Z,35.07
2019-02-24T03:00:42.099Z,35.09
2019-02-24T03:01:21.244Z,35.10
2019-02-24T03:01:58.741Z,35.14
2019-02-24T03:02:36.310Z,35.19
2019-02-24T03:03:12.624Z,35.24
2019-02-24T03:03:50.349Z,35.30
2019-02-24T03:04:27.451Z,35.35
2019-02-24T03:05:03.893Z,35.38
2019-02-24T03:05:51.648Z,35.36
2019-02-24T03:06:56.570Z,35.39
2019-02-24T03:07:44.002Z,35.38
2019-02-24T03:08:22.028Z,35.38
2019-02-24T03:08:58.257Z,35.40
2019-02-24T03:09:36.840Z,35.36
2019-02-24T03:10:13.250Z,35.31
2019-02-24T03:10:53.608Z,35.32
2019-02-24T03:11:29.852Z,35.34
2019-02-24T03:12:06.409Z,35.36
2019-02-24T03:12:42.759Z,35.41
2019-02-24T03:13:18.910Z,35.44
2019-02-24T03:13:55.309Z,35.43
2019-02-24T03:14:31.907Z,35.45
2019-02-24T03:15:09.853Z,35.42
2019-02-24T03:15:46.397Z,35.45
2019-02-24T03:16:31.420Z,35.44
2019-02-24T03:17:08.545Z,35.45
2019-02-24T03:17:45.475Z,35.52
2019-02-24T03:18:24.704Z,35.53
2019-02-24T03:19:01.317Z,35.51
2019-02-24T03:19:37.615Z,35.50
2019-02-24T03:20:13.875Z,35.51
2019-02-24T03:20:50.252Z,35.53
2019-02-24T03:21:26.682Z,35.55
2019-02-24T03:22:03.152Z,35.60
2019-02-24T03:22:40.712Z,35.64
2019-02-24T03:23:18.282Z,35.65
2019-02-24T03:23:55.988Z,35.65
2019-02-24T03:24:32.398Z,35.65
2019-02-24T03:25:08.556Z,35.69
2019-02-24T03:25:44.945Z,35.71
2019-02-24T03:26:22.679Z,35.73
2019-02-24T03:26:59.191Z,35.69
2019-02-24T03:27:39.209Z,35.69
2019-02-24T03:28:17.585Z,35.69
2019-02-24T03:29:03.875Z,35.71
2019-02-24T03:29:35.094Z,35.72
2019-02-24T03:30:12.057Z,35.74
2019-02-24T03:30:51.862Z,35.75
2019-02-24T03:31:28.192Z,35.74
2019-02-24T03:32:04.665Z,35.73
2019-02-24T03:32:40.987Z,35.77
2019-02-24T03:33:18.038Z,35.73
2019-02-24T03:33:56.595Z,35.74
2019-02-24T03:34:33.886Z,35.76
2019-02-24T03:35:11.525Z,35.79
2019-02-24T03:35:49.039Z,35.78
2019-02-24T03:36:25.767Z,35.80
2019-02-24T03:37:01.936Z,35.78
2019-02-24T03:37:38.268Z,35.80
2019-02-24T03:38:14.697Z,35.80
2019-02-24T03:38:51.371Z,35.79
2019-02-24T03:39:29.334Z,35.80
2019-02-24T03:40:05.815Z,35.78
2019-02-24T03:40:42.009Z,35.76
2019-02-24T03:41:21.658Z,35.78
2019-02-24T03:41:58.811Z,35.75
2019-02-24T03:42:35.150Z,35.68
2019-02-24T03:43:12.017Z,35.66
2019-02-24T03:43:48.727Z,35.68
2019-02-24T03:44:24.874Z,35.70
2019-02-24T03:45:01.213Z,35.65
2019-02-24T03:45:40.278Z,35.70
2019-02-24T03:46:16.446Z,35.70
2019-02-24T03:46:52.744Z,35.76
2019-02-24T03:47:29.259Z,35.77
2019-02-24T03:48:06.179Z,35.75
2019-02-24T03:48:43.009Z,35.77
2019-02-24T03:49:19.937Z,35.80
2019-02-24T03:49:57.206Z,35.81
2019-02-24T03:50:33.744Z,35.82
2019-02-24T03:51:10.329Z,35.83
2019-02-24T03:51:49.731Z,35.81
2019-02-24T03:52:27.137Z,35.82
2019-02-24T03:53:03.526Z,35.84
2019-02-24T03:53:41.199Z,35.87
2019-02-24T03:54:17.771Z,35.88
2019-02-24T03:54:55.321Z,35.87
2019-02-24T03:55:31.886Z,35.85
2019-02-24T03:56:09.714Z,35.83
2019-02-24T03:56:48.739Z,35.81
2019-02-24T03:57:25.223Z,35.80
2019-02-24T03:58:01.727Z,35.75
2019-02-24T03:58:38.052Z,35.77
2019-02-24T03:59:23.694Z,35.77
2019-02-24T04:00:00.767Z,35.73
2019-02-24T04:00:37.412Z,35.69
2019-02-24T04:01:14.480Z,35.63
2019-02-24T04:01:50.848Z,35.61
2019-02-24T04:02:27.674Z,35.61
2019-02-24T04:03:03.932Z,35.60
2019-02-24T04:03:43.576Z,35.58
2019-02-24T04:04:24.344Z,35.55
2019-02-24T04:05:01.165Z,35.58
2019-02-24T04:05:38.025Z,35.61
2019-02-24T04:06:14.349Z,35.66
2019-02-24T04:06:51.446Z,35.68
2019-02-24T04:07:29.613Z,35.70
2019-02-24T04:08:06.756Z,35.73
2019-02-24T04:08:42.968Z,35.74
2019-02-24T04:09:19.947Z,35.76
2019-02-24T04:09:56.292Z,35.75
2019-02-24T04:10:32.652Z,35.78
2019-02-24T04:11:12.111Z,35.82
2019-02-24T04:11:49.087Z,35.84
2019-02-24T04:12:27.571Z,35.85
2019-02-24T04:13:03.848Z,35.88
2019-02-24T04:13:40.478Z,35.93
2019-02-24T04:14:19.114Z,35.97
2019-02-24T04:14:55.358Z,35.99
2019-02-24T04:15:31.907Z,36.01
2019-02-24T04:16:08.824Z,36.03
2019-02-24T04:16:46.235Z,36.05
2019-02-24T04:17:23.173Z,36.06
2019-02-24T04:17:59.494Z,36.09
2019-02-24T04:18:35.824Z,36.10
2019-02-24T04:19:13.468Z,36.13
2019-02-24T04:19:49.662Z,36.14
2019-02-24T04:20:25.949Z,36.13
2019-02-24T04:21:02.255Z,36.15
2019-02-24T04:21:44.387Z,36.13
2019-02-24T04:22:20.525Z,36.13
2019-02-24T04:22:57.562Z,36.11
2019-02-24T04:23:35.512Z,36.09
2019-02-24T04:24:12.086Z,36.05
2019-02-24T04:24:53.261Z,36.04
2019-02-24T04:25:30.083Z,36.00
2019-02-24T04:26:25.435Z,36.03
2019-02-24T04:27:03.181Z,36.02
2019-02-24T04:27:40.223Z,36.02
2019-02-24T04:28:16.850Z,36.07
2019-02-24T04:28:53.433Z,36.04
2019-02-24T04:29:30.625Z,36.07
2019-02-24T04:30:06.933Z,36.06
2019-02-24T04:30:43.212Z,36.04
2019-02-24T04:31:20.445Z,36.04
2019-02-24T04:31:58.271Z,36.07
2019-02-24T04:32:34.627Z,36.07
2019-02-24T04:33:11.386Z,36.09
2019-02-24T04:33:47.717Z,36.08
2019-02-24T04:34:23.945Z,36.10
2019-02-24T04:35:00.664Z,36.12
2019-02-24T04:35:38.258Z,36.09
2019-02-24T04:36:14.444Z,36.09
2019-02-24T04:36:53.741Z,36.10
2019-02-24T04:37:30.104Z,36.09
2019-02-24T04:38:07.006Z,36.07
2019-02-24T04:38:45.075Z,36.11
2019-02-24T04:39:21.337Z,36.11
2019-02-24T04:39:59.517Z,36.15
2019-02-24T04:40:36.740Z,36.17
2019-02-24T04:41:13.513Z,36.15
2019-02-24T04:41:49.793Z,36.18
2019-02-24T04:42:27.110Z,36.21
2019-02-24T04:43:04.005Z,36.22
2019-02-24T04:43:40.136Z,36.22
2019-02-24T04:44:16.598Z,36.12
2019-02-24T04:44:52.899Z,36.13
2019-02-24T04:45:29.192Z,36.09
2019-02-24T04:46:05.681Z,36.03
2019-02-24T04:46:42.502Z,36.07
2019-02-24T04:47:19.623Z,36.09
2019-02-24T04:48:01.297Z,36.08
2019-02-24T04:48:38.827Z,36.05
2019-02-24T04:49:15.097Z,36.04
2019-02-24T04:49:52.890Z,36.07
2019-02-24T04:50:34.248Z,36.11
2019-02-24T04:51:11.197Z,36.12
2019-02-24T04:51:48.580Z,36.17
2019-02-24T04:52:28.066Z,36.15
2019-02-24T04:53:05.131Z,36.19
2019-02-24T04:53:42.535Z,36.20
2019-02-24T04:54:19.146Z,36.23
2019-02-24T04:54:55.426Z,36.19
2019-02-24T04:55:31.709Z,36.25
2019-02-24T04:56:07.921Z,36.25
2019-02-24T04:56:44.264Z,36.22
2019-02-24T04:57:20.725Z,36.24
2019-02-24T04:57:57.096Z,36.27
2019-02-24T04:58:33.404Z,36.30
2019-02-24T04:59:09.747Z,36.35
2019-02-24T04:59:46.082Z,36.37
2019-02-24T05:00:22.405Z,36.38
2019-02-24T05:01:00.074Z,36.40
2019-02-24T05:01:36.330Z,36.41
2019-02-24T05:02:13.485Z,36.44
2019-02-24T05:02:49.816Z,36.44
2019-02-24T05:03:26.298Z,36.48
2019-02-24T05:04:02.553Z,36.51
2019-02-24T05:04:40.238Z,36.51
2019-02-24T05:05:16.588Z,36.50
2019-02-24T05:05:54.000Z,36.54
2019-02-24T05:06:30.205Z,36.54
2019-02-24T05:07:06.426Z,36.50
2019-02-24T05:07:42.799Z,36.53
2019-02-24T05:08:19.037Z,36.50
2019-02-24T05:08:55.394Z,36.52
2019-02-24T05:09:31.801Z,36.53
2019-02-24T05:10:08.704Z,36.55
2019-02-24T05:10:45.154Z,36.52
2019-02-24T05:11:21.927Z,36.55
2019-02-24T05:12:00.413Z,36.57
2019-02-24T05:12:36.533Z,36.58
2019-02-24T05:13:14.072Z,36.61
2019-02-24T05:13:50.510Z,36.66
2019-02-24T05:14:27.005Z,36.68
2019-02-24T05:15:03.424Z,36.72
2019-02-24T05:15:39.850Z,36.71
2019-02-24T05:16:16.436Z,36.76
2019-02-24T05:16:52.747Z,36.79
2019-02-24T05:17:29.313Z,36.79
2019-02-24T05:18:07.202Z,36.83
2019-02-24T05:18:43.588Z,36.83
2019-02-24T05:19:19.961Z,36.84
2019-02-24T05:19:59.537Z,36.84
2019-02-24T05:20:36.220Z,36.84
2019-02-24T05:21:12.481Z,36.77
2019-02-24T05:21:48.901Z,36.69
2019-02-24T05:22:25.155Z,36.59
2019-02-24T05:23:01.504Z,36.61
2019-02-24T05:23:37.821Z,36.61
2019-02-24T05:24:14.150Z,36.60
2019-02-24T05:24:51.214Z,36.60
2019-02-24T05:25:27.348Z,36.60
2019-02-24T05:26:03.672Z,36.60
2019-02-24T05:26:39.894Z,36.61
2019-02-24T05:27:16.946Z,36.65
2019-02-24T05:27:54.283Z,36.57
2019-02-24T05:28:33.378Z,36.59
2019-02-24T05:29:10.483Z,36.59
2019-02-24T05:29:47.514Z,36.58
2019-02-24T05:30:24.625Z,36.59
2019-02-24T05:31:05.612Z,36.60
2019-02-24T05:31:44.078Z,36.61
2019-02-24T05:32:20.946Z,36.64
2019-02-24T05:32:57.594Z,36.65
2019-02-24T05:33:34.559Z,36.67
2019-02-24T05:34:12.542Z,36.67
2019-02-24T05:34:49.195Z,36.68
2019-02-24T05:35:29.755Z,36.63
2019-02-24T05:36:11.569Z,36.62
2019-02-24T05:36:48.375Z,36.60
2019-02-24T05:37:25.231Z,36.61
2019-02-24T05:38:02.229Z,36.63
2019-02-24T05:38:39.601Z,36.65
2019-02-24T05:39:17.706Z,36.67
2019-02-24T05:39:55.729Z,36.68
2019-02-24T05:40:33.444Z,36.70
2019-02-24T05:41:09.804Z,36.68
2019-02-24T05:41:47.681Z,36.68
2019-02-24T05:42:27.731Z,36.67
2019-02-24T05:43:04.084Z,36.69
2019-02-24T05:43:40.962Z,36.70
2019-02-24T05:44:17.740Z,36.66
2019-02-24T05:45:00.382Z,36.69
2019-02-24T05:45:38.024Z,36.69
2019-02-24T05:46:15.929Z,36.73
2019-02-24T05:46:55.776Z,36.73
2019-02-24T05:47:38.496Z,36.78
2019-02-24T05:48:15.843Z,36.80
2019-02-24T05:48:54.008Z,36.78
2019-02-24T05:49:30.370Z,36.76
2019-02-24T05:50:07.761Z,36.75
2019-02-24T05:50:44.076Z,36.75
2019-02-24T05:51:20.573Z,36.70
2019-02-24T05:52:14.151Z,36.71
2019-02-24T05:52:50.403Z,36.69
2019-02-24T05:53:27.352Z,36.67
2019-02-24T05:54:03.632Z,36.64
2019-02-24T05:54:42.777Z,36.65
2019-02-24T05:55:22.729Z,36.65
2019-02-24T05:55:59.882Z,36.65
2019-02-24T05:56:36.970Z,36.65
2019-02-24T05:57:13.198Z,36.67
2019-02-24T05:57:49.650Z,36.68
2019-02-24T05:58:26.358Z,36.70
2019-02-24T05:59:03.333Z,36.72
2019-02-24T05:59:39.920Z,36.75
2019-02-24T06:00:17.142Z,36.72
2019-02-24T06:00:53.545Z,36.74
2019-02-24T06:01:29.937Z,36.76
2019-02-24T06:02:07.398Z,36.71
2019-02-24T06:02:52.853Z,36.68
2019-02-24T06:03:28.998Z,36.68
2019-02-24T06:04:07.495Z,36.63
2019-02-24T06:04:43.685Z,36.63
2019-02-24T06:05:20.757Z,36.63
2019-02-24T06:06:00.669Z,36.62
2019-02-24T06:06:42.321Z,36.59
2019-02-24T06:07:19.283Z,36.60
2019-02-24T06:07:56.403Z,36.61
2019-02-24T06:08:35.882Z,36.64
2019-02-24T06:09:15.563Z,36.66
2019-02-24T06:09:52.335Z,36.63
2019-02-24T06:10:29.307Z,36.65
2019-02-24T06:11:06.373Z,36.61
2019-02-24T06:11:42.584Z,36.63
2019-02-24T06:12:18.822Z,36.62
2019-02-24T06:12:55.086Z,36.62
2019-02-24T06:13:31.357Z,36.63
2019-02-24T06:14:13.050Z,36.62
2019-02-24T06:15:10.956Z,36.55
2019-02-24T06:15:47.148Z,36.55
2019-02-24T06:16:23.587Z,36.55
2019-02-24T06:17:00.170Z,36.57
2019-02-24T06:17:37.479Z,36.55
2019-02-24T06:18:13.914Z,36.59
2019-02-24T06:18:50.706Z,36.60
2019-02-24T06:19:27.527Z,36.66
2019-02-24T06:20:03.985Z,36.70
2019-02-24T06:20:40.794Z,36.70
2019-02-24T06:21:17.188Z,36.74
2019-02-24T06:21:54.034Z,36.77
2019-02-24T06:22:30.912Z,36.78
2019-02-24T06:23:07.854Z,36.75
2019-02-24T06:23:44.298Z,36.72
2019-02-24T06:24:21.215Z,36.70
2019-02-24T06:24:57.916Z,36.73
2019-02-24T06:25:34.583Z,36.75
2019-02-24T06:26:11.796Z,36.78
2019-02-24T06:26:48.017Z,36.74
2019-02-24T06:27:24.843Z,36.75
2019-02-24T06:28:01.601Z,36.71
2019-02-24T06:28:38.584Z,36.72
2019-02-24T06:29:15.722Z,36.69
2019-02-24T06:29:52.352Z,36.67
2019-02-24T06:30:29.280Z,36.68
2019-02-24T06:31:05.849Z,36.65
2019-02-24T06:31:42.563Z,36.62
2019-02-24T06:32:19.252Z,36.58
2019-02-24T06:32:56.130Z,36.56
2019-02-24T06:33:32.381Z,36.56
2019-02-24T06:34:09.085Z,36.55
2019-02-24T06:34:45.245Z,36.57
2019-02-24T06:35:21.509Z,36.58
2019-02-24T06:35:57.803Z,36.61
2019-02-24T06:36:34.235Z,36.64
2019-02-24T06:37:10.415Z,36.68
2019-02-24T06:37:46.564Z,36.72
2019-02-24T06:38:23.526Z,36.73
2019-02-24T06:39:00.485Z,36.73
2019-02-24T06:39:36.660Z,36.74
2019-02-24T06:40:13.456Z,36.74
2019-02-24T06:40:50.224Z,36.76
2019-02-24T06:41:26.375Z,36.73
2019-02-24T06:42:03.608Z,36.72
2019-02-24T06:42:40.753Z,36.75
2019-02-24T06:43:17.039Z,36.67
2019-02-24T06:43:53.129Z,36.66
2019-02-24T06:44:29.301Z,36.70
2019-02-24T06:45:05.555Z,36.67
2019-02-24T06:45:41.789Z,36.65
2019-02-24T06:46:19.024Z,36.63
2019-02-24T06:46:55.212Z,36.63
2019-02-24T06:47:31.770Z,36.64
2019-02-24T06:48:08.051Z,36.62
2019-02-24T06:48:44.640Z,36.64
2019-02-24T06:49:20.692Z,36.63
2019-02-24T06:49:56.835Z,36.65
2019-02-24T06:50:51.815Z,36.65
2019-02-24T06:51:28.125Z,36.66
2019-02-24T06:52:04.383Z,36.66
2019-02-24T06:52:41.427Z,36.69
2019-02-24T06:53:17.781Z,36.70
2019-02-24T06:53:54.022Z,36.71
2019-02-24T06:54:30.320Z,36.73
2019-02-24T06:55:06.836Z,36.70
2019-02-24T06:55:43.108Z,36.70
2019-02-24T06:56:20.110Z,36.75
2019-02-24T06:56:56.364Z,36.74
2019-02-24T06:57:32.673Z,36.72
2019-02-24T06:58:09.289Z,36.73
2019-02-24T06:58:45.482Z,36.67
2019-02-24T06:59:22.731Z,36.69
2019-02-24T06:59:59.326Z,36.71
2019-02-24T07:00:36.013Z,36.73
2019-02-24T07:01:12.887Z,36.75
2019-02-24T07:01:49.277Z,36.75
2019-02-24T07:02:25.623Z,36.77
2019-02-24T07:03:02.669Z,36.77
2019-02-24T07:03:38.761Z,36.79
2019-02-24T07:04:15.591Z,36.80
2019-02-24T07:04:52.595Z,36.79
2019-02-24T07:05:28.899Z,36.82
2019-02-24T07:06:05.436Z,36.82
2019-02-24T07:06:41.594Z,36.84
2019-02-24T07:07:18.473Z,36.85
2019-02-24T07:07:54.669Z,36.86
2019-02-24T07:08:31.009Z,36.86
2019-02-24T07:09:08.189Z,36.88
2019-02-24T07:09:44.908Z,36.90
2019-02-24T07:10:21.732Z,36.88
2019-02-24T07:10:58.042Z,36.91
2019-02-24T07:11:34.851Z,36.96
2019-02-24T07:12:11.089Z,36.99
2019-02-24T07:12:47.414Z,37.02
2019-02-24T07:13:24.143Z,37.03
2019-02-24T07:14:00.736Z,37.04
2019-02-24T07:14:37.108Z,37.06
2019-02-24T07:15:13.768Z,37.04
2019-02-24T07:15:50.079Z,36.98
2019-02-24T07:16:26.833Z,36.98
2019-02-24T07:17:03.710Z,36.91
2019-02-24T07:17:40.261Z,36.92
2019-02-24T07:18:17.014Z,36.95
2019-02-24T07:18:53.729Z,37.01
2019-02-24T07:19:30.082Z,37.02
2019-02-24T07:20:06.509Z,37.05
2019-02-24T07:20:42.689Z,37.10
2019-02-24T07:21:19.544Z,37.13
2019-02-24T07:21:56.015Z,37.15
2019-02-24T07:22:33.206Z,37.16
2019-02-24T07:23:09.431Z,37.15
2019-02-24T07:23:46.187Z,37.16
2019-02-24T07:24:22.556Z,37.19
2019-02-24T07:24:59.532Z,37.21
2019-02-24T07:25:36.174Z,37.19
2019-02-24T07:26:12.657Z,37.20
2019-02-24T07:26:49.662Z,37.17
2019-02-24T07:27:26.622Z,37.18
2019-02-24T07:28:03.665Z,37.16
2019-02-24T07:28:40.799Z,37.17
2019-02-24T07:29:17.008Z,37.09
2019-02-24T07:29:53.923Z,37.06
2019-02-24T07:30:30.724Z,37.02
2019-02-24T07:31:07.476Z,36.97
2019-02-24T07:31:44.259Z,36.90
2019-02-24T07:32:20.586Z,36.92
2019-02-24T07:32:57.338Z,36.92
2019-02-24T07:33:33.586Z,36.94
2019-02-24T07:34:09.773Z,36.95
2019-02-24T07:34:46.915Z,36.96
2019-02-24T07:35:23.911Z,36.96
2019-02-24T07:36:00.497Z,36.97
2019-02-24T07:36:37.343Z,36.99
2019-02-24T07:37:14.319Z,37.01
2019-02-24T07:37:50.342Z,37.00
2019-02-24T07:38:26.507Z,36.96
2019-02-24T07:39:02.754Z,36.96
2019-02-24T07:39:39.353Z,36.95
2019-02-24T07:40:16.252Z,36.95
2019-02-24T07:40:53.083Z,36.95
2019-02-24T07:41:29.800Z,36.94
2019-02-24T07:42:06.751Z,36.95
2019-02-24T07:42:42.905Z,36.94
2019-02-24T07:43:19.455Z,36.92
2019-02-24T07:43:56.521Z,36.93
2019-02-24T07:44:33.617Z,36.91
2019-02-24T07:45:09.815Z,36.89
2019-02-24T07:45:46.603Z,36.89
2019-02-24T07:46:23.770Z,36.89
2019-02-24T07:46:59.919Z,36.89
2019-02-24T07:47:36.102Z,36.89
2019-02-24T07:48:12.584Z,36.91
2019-02-24T07:48:49.702Z,36.93
2019-02-24T07:49:26.021Z,36.95
2019-02-24T07:50:02.261Z,36.96
2019-02-24T07:50:39.060Z,36.98
2019-02-24T07:51:16.293Z,37.00
2019-02-24T07:51:52.487Z,37.02
2019-02-24T07:52:28.854Z,37.02
2019-02-24T07:53:05.938Z,37.04
2019-02-24T07:53:43.513Z,37.04
2019-02-24T07:54:20.186Z,37.08
2019-02-24T07:54:56.354Z,37.08
2019-02-24T07:55:32.635Z,37.10
2019-02-24T07:56:09.168Z,37.11
2019-02-24T07:56:45.861Z,37.13
2019-02-24T07:57:22.926Z,37.16
2019-02-24T07:57:59.873Z,37.17
2019-02-24T07:58:36.108Z,37.17
2019-02-24T07:59:12.450Z,37.17
2019-02-24T07:59:48.698Z,37.18
2019-02-24T08:00:31.990Z,37.16
2019-02-24T08:01:03.072Z,37.15
2019-02-24T08:01:39.149Z,37.13
2019-02-24T08:02:16.386Z,37.04
2019-02-24T08:02:52.903Z,37.05
2019-02-24T08:03:29.698Z,37.05
2019-02-24T08:04:08.072Z,37.03
2019-02-24T08:04:44.501Z,37.03
2019-02-24T08:05:20.774Z,37.05
2019-02-24T08:05:57.248Z,37.05
2019-02-24T08:06:33.724Z,37.08
2019-02-24T08:07:10.395Z,37.10
2019-02-24T08:07:47.399Z,37.11
2019-02-24T08:08:23.487Z,37.09
2019-02-24T08:08:59.590Z,37.09
2019-02-24T08:09:35.734Z,37.07
2019-02-24T08:10:11.938Z,37.07
2019-02-24T08:10:48.802Z,37.05
2019-02-24T08:11:25.652Z,37.05
2019-02-24T08:12:01.711Z,37.04
2019-02-24T08:12:38.670Z,37.05
2019-02-24T08:13:14.958Z,37.05
2019-02-24T08:13:51.076Z,37.05
2019-02-24T08:14:27.370Z,37.06
2019-02-24T08:15:04.307Z,37.05
2019-02-24T08:15:40.479Z,37.06
2019-02-24T08:16:16.727Z,37.05
2019-02-24T08:16:53.292Z,37.04
2019-02-24T08:17:30.187Z,37.02
2019-02-24T08:18:06.572Z,37.03
2019-02-24T08:18:49.244Z,37.01
2019-02-24T08:19:20.980Z,37.00
2019-02-24T08:19:57.408Z,36.99
2019-02-24T08:20:33.574Z,36.99
2019-02-24T08:21:10.249Z,36.97
2019-02-24T08:21:47.052Z,36.96
2019-02-24T08:22:23.685Z,36.96
2019-02-24T08:23:00.063Z,36.97
2019-02-24T08:23:36.345Z,36.95
2019-02-24T08:24:13.361Z,36.92
2019-02-24T08:24:49.850Z,36.90
2019-02-24T08:25:26.091Z,36.87
2019-02-24T08:26:02.383Z,36.83
2019-02-24T08:26:39.348Z,36.80
2019-02-24T08:27:15.813Z,36.79
2019-02-24T08:27:54.917Z,36.78
2019-02-24T08:28:30.521Z,36.75
2019-02-24T08:29:07.830Z,36.75
2019-02-24T08:29:44.802Z,36.75
2019-02-24T08:30:21.745Z,36.76
2019-02-24T08:30:58.566Z,36.72
2019-02-24T08:31:34.738Z,36.73
2019-02-24T08:32:11.015Z,36.71
2019-02-24T08:32:47.295Z,36.74
2019-02-24T08:33:23.678Z,36.72
2019-02-24T08:33:59.914Z,36.75
2019-02-24T08:34:36.317Z,36.72
2019-02-24T08:35:12.908Z,36.76
2019-02-24T08:35:49.331Z,36.76
2019-02-24T08:36:25.513Z,36.72
2019-02-24T08:37:02.437Z,36.70
2019-02-24T08:37:39.540Z,36.62
2019-02-24T08:38:15.825Z,36.61
2019-02-24T08:38:52.965Z,36.56
2019-02-24T08:39:30.070Z,36.54
2019-02-24T08:40:06.335Z,36.48
2019-02-24T08:40:42.798Z,36.47
2019-02-24T08:41:19.810Z,36.47
2019-02-24T08:41:56.842Z,36.48
2019-02-24T08:42:33.758Z,36.44
2019-02-24T08:43:10.575Z,36.44
2019-02-24T08:43:46.857Z,36.44
2019-02-24T08:44:22.967Z,36.36
2019-02-24T08:44:59.288Z,36.39
2019-02-24T08:45:36.450Z,36.35
2019-02-24T08:46:12.939Z,36.26
2019-02-24T08:46:50.001Z,36.28
2019-02-24T08:47:26.234Z,36.29
2019-02-24T08:48:03.203Z,36.26
2019-02-24T08:48:40.144Z,36.27
2019-02-24T08:49:16.440Z,36.27
2019-02-24T08:49:53.048Z,36.23
2019-02-24T08:50:29.948Z,36.24
2019-02-24T08:51:06.943Z,36.24
2019-02-24T08:51:43.587Z,36.23
2019-02-24T08:52:20.584Z,36.25
2019-02-24T08:52:57.166Z,36.23
2019-02-24T08:53:33.797Z,36.24
2019-02-24T08:54:09.868Z,36.25
2019-02-24T08:54:46.174Z,36.20
2019-02-24T08:55:22.994Z,36.16
2019-02-24T08:55:59.756Z,36.12
2019-02-24T08:56:36.098Z,36.15
2019-02-24T08:57:13.158Z,36.11
2019-02-24T08:57:49.450Z,36.10
2019-02-24T08:58:25.615Z,36.07
2019-02-24T08:59:01.947Z,36.01
2019-02-24T08:59:38.395Z,36.01
2019-02-24T09:00:15.405Z,35.99
2019-02-24T09:00:51.872Z,36.04
2019-02-24T09:01:28.566Z,36.00
2019-02-24T09:02:04.829Z,36.00
2019-02-24T09:02:41.047Z,35.98
2019-02-24T09:03:17.631Z,35.95
2019-02-24T09:03:54.007Z,35.94
2019-02-24T09:04:30.658Z,35.92
2019-02-24T09:05:06.898Z,35.94
2019-02-24T09:05:43.697Z,35.95
2019-02-24T09:06:19.917Z,35.95
2019-02-24T09:06:56.062Z,35.95
2019-02-24T09:07:32.340Z,35.96
2019-02-24T09:08:08.622Z,35.96
2019-02-24T09:08:45.587Z,35.96
2019-02-24T09:09:21.635Z,35.95
2019-02-24T09:09:58.346Z,35.93
2019-02-24T09:10:34.615Z,35.97
2019-02-24T09:11:10.983Z,35.99
2019-02-24T09:11:47.301Z,35.98
2019-02-24T09:12:24.153Z,36.00
2019-02-24T09:13:01.137Z,36.01
2019-02-24T09:13:37.380Z,36.03
2019-02-24T09:14:13.646Z,35.99
2019-02-24T09:14:50.703Z,36.02
2019-02-24T09:15:26.900Z,35.99
2019-02-24T09:16:03.198Z,36.00
2019-02-24T09:16:39.698Z,36.04
2019-02-24T09:17:16.321Z,36.04
2019-02-24T09:17:53.299Z,36.06
2019-02-24T09:18:29.364Z,36.07
2019-02-24T09:19:06.353Z,36.09
2019-02-24T09:19:42.606Z,36.10
2019-02-24T09:20:19.280Z,36.12
2019-02-24T09:20:55.868Z,36.14
2019-02-24T09:21:32.786Z,36.17
2019-02-24T09:22:09.290Z,36.20
2019-02-24T09:22:46.294Z,36.18
2019-02-24T09:23:22.404Z,36.19
2019-02-24T09:23:58.697Z,36.19
2019-02-24T09:24:35.053Z,36.19
2019-02-24T09:25:12.125Z,36.18
2019-02-24T09:25:48.475Z,36.18
2019-02-24T09:26:25.309Z,36.16
2019-02-24T09:27:01.868Z,36.17
2019-02-24T09:27:38.097Z,36.17
2019-02-24T09:28:14.453Z,36.18
2019-02-24T09:28:51.011Z,36.14
2019-02-24T09:29:27.797Z,36.13
2019-02-24T09:30:04.963Z,36.12
2019-02-24T09:30:41.703Z,36.12
2019-02-24T09:31:18.168Z,36.11
2019-02-24T09:31:55.083Z,36.09
2019-02-24T09:32:31.266Z,36.08
2019-02-24T09:33:08.119Z,36.10
2019-02-24T09:33:44.266Z,36.10
2019-02-24T09:34:20.742Z,36.07
2019-02-24T09:34:57.515Z,36.04
2019-02-24T09:35:34.495Z,36.03
2019-02-24T09:36:11.430Z,36.01
2019-02-24T09:36:47.658Z,35.99
2019-02-24T09:37:23.932Z,35.96
2019-02-24T09:38:00.149Z,35.96
2019-02-24T09:38:36.336Z,35.94
2019-02-24T09:39:12.877Z,35.94
2019-02-24T09:39:49.226Z,35.92